Ardsley On Hudson, NY

10:34 PM EDT on August 27, 2014 (GMT -0400)
KNYTARRY3 | Change Station
CLOSE
Current Station
Personal Weather Station
Location: Tarrytown, NY
Elevation: 341 ft
Nearby Weather Stations

Elev 341 ft 41.05 °N, 73.85 °W | Updated 53 seconds ago

Overcast
Overcast
72.2 °F
Feels Like 70 °F
N
1.2
Wind Variable Wind from NNE
Gusts 0.0 mph

Today
High -- | Low -- °F
--% Chance of Precip.
Yesterday
High -- | Low -- °F
Precip. -- in
6:17 AM 7:36 PM
Waxing Crescent, 6% visible
Pressure 29.88 in
Visibility 10.0 miles
Clouds Mostly Cloudy 4200 ft
Heat Index 70 °F
Dew Point 68 °F
Humidity 88%
Rainfall 0.04 in
Snow Depth Not available.
UV 0 out of 12
Pollen 10.00 out of 12
Ozone Good
PM2.5 Moderate
Flu Activity Not available.
METAR KHPN 280156Z 00000KT 10SM BKN042 23/19 A2990 RMK AO2 DZB15E51 SLP119 P0000 T02330194

More Conditions Fewer Conditions

Pressure 29.88 in
Visibility 10.0 miles
Clouds Mostly Cloudy 4200 ft
Heat Index 70 °F
Dew Point 68 °F
Humidity 88%
Rainfall 0.04 in
Snow Depth Not available.
UV 0 out of 12
Pollen 10.00 out of 12
Ozone Good
PM2.5 Moderate
Flu Activity Not available.
METAR KHPN 280156Z 00000KT 10SM BKN042 23/19 A2990 RMK AO2 DZB15E51 SLP119 P0000 T02330194

More Conditions Fewer Conditions

10-Day Weather Forecast

Almanac

Astronomy

Aug. 27, 2014 Rise Set
Actual Time 6:17 AM EDT 7:36 PM EDT
Civil Twilight 5:48 AM EDT 8:04 PM EDT
Nautical Twilight 5:14 AM EDT 8:38 PM EDT
Astronomical Twilight 4:38 AM EDT 9:14 PM EDT
Moon 8:12 AM EDT (8/27) 8:25 PM EDT (8/27)
Length of Visible Light 14h 16m
Length of Day
13h 18m
Tomorrow will be 2m 34s shorter.
Waxing Crescent, 6% of the Moon is Illuminated
Today
Waxing Crescent
Sep 2
First Quarter
Sep 8
Full
Sep 15
Last Quarter
Sep 24
New

Today's Extremes

State Highs State Lows

Community

WunderPhotos

Upload Photos

1,747,872 photos uploaded!

Nearby

Air Quality

  Air Quality AQ Index Pollutant
Yesterday Good
OZONE
Yesterday Good
PM2.5
Current Moderate
PM2.5
Current Good
OZONE
Wednesday Moderate
OZONE
Wednesday Moderate
PM2.5
Thursday Good
OZONE
Thursday Good
PM2.5

Snow Depth

Station Depth Elevation
No new snow has been reported.

Earthquake Activity

City Distance Mag. Time & Date
No recent earthquake activity has been reported nearby.
Minimum magnitude displayed is 2.5.

Coastal Water Temperatures

Place Temperature
Kings Point, NY 73.9 °F
Bridgeport, CT 77.0 °F

Nearby Weather Stations